This is the latest recevied weather packets stored in our database for station/object YO6FNF-10. If no packets are shown the sender has not sent any weather packets the latest 10 day(s).
| Time | Temp. | Humidity | Pressure | Rain* | Wind** | Luminosity | Snow |
|---|---|---|---|---|---|---|---|
| 1778145438 | 27.78° C | 26% | 1016.9 hPa | - | - | - | - |
| 1778144538 | 27.78° C | 29% | 1016.9 hPa | - | - | - | - |
| 1778143638 | 27.22° C | 31% | 1017.1 hPa | - | - | - | - |
| 1778142738 | 26.11° C | 34% | 1017.1 hPa | - | - | - | - |
| 1778141837 | 26.11° C | 33% | 1017.2 hPa | - | - | - | - |
| 1778140937 | 24.44° C | 35% | 1017.3 hPa | - | - | - | - |
| 1778140036 | 24.44° C | 37% | 1017.3 hPa | - | - | - | - |
| 1778139136 | 23.89° C | 38% | 1017.5 hPa | - | - | - | - |
| 1778138255 | 22.22° C | 41% | 1017.5 hPa | - | - | - | - |
| 1778137355 | 21.11° C | 44% | 1017.6 hPa | - | - | - | - |
| 1778136455 | 20.56° C | 45% | 1017.6 hPa | - | - | - | - |
| 1778135555 | 19.44° C | 48% | 1017.6 hPa | - | - | - | - |
| 1778134654 | 18.33° C | 50% | 1017.8 hPa | - | - | - | - |
| 1778133754 | 17.22° C | 52% | 1017.9 hPa | - | - | - | - |
| 1778132854 | 15.56° C | 59% | 1018 hPa | - | - | - | - |
| 1778131984 | 14.44° C | 63% | 1018 hPa | - | - | - | - |
| 1778131054 | 13.33° C | 67% | 1018 hPa | - | - | - | - |
| 1778130153 | 11.67° C | 70% | 1018.1 hPa | - | - | - | - |
| 1778129253 | 11.11° C | 72% | 1018.1 hPa | - | - | - | - |
| 1778128353 | 10.56° C | 69% | 1018 hPa | - | - | - | - |
| 1778127490 | 10.56° C | 69% | 1018.1 hPa | - | - | - | - |
| 1778126552 | 10° C | 70% | 1018 hPa | - | - | - | - |
| 1778125652 | 9.44° C | 72% | 1017.9 hPa | - | - | - | - |
| 1778124752 | 8.89° C | 75% | 1017.9 hPa | - | - | - | - |
| 1778123852 | 8.33° C | 74% | 1017.8 hPa | - | - | - | - |
* Rain since midnight (hover to see other rain measurements)
** Current wind speed in m/s (hover to see current wind gust speed)